Time;durP1;ratioP1;P1;durP2;ratioP2;P2;SDS_P1;SDS_P2;PMS_P1;PMS_P2;Temp;Humidity;BMP_temperature;BMP_pressure;BME280_temperature;BME280_humidity;BME280_pressure;Samples;Min_cycle;Max_cycle;Signal;HPM_P1;HPM_P2
2023/04/09 00:01:33;;;;;;;4.03;1.30;;;;;;;;;;4916835;29;20471;-88
2023/04/09 00:04:02;;;;;;;3.57;1.17;;;;;;;;;;4916991;29;20471;-88
2023/04/09 00:06:30;;;;;;;6.93;1.60;;;;;;;;;;4916625;29;20496;-88
2023/04/09 00:08:59;;;;;;;9.57;1.60;;;;;;;;;;4916619;29;20965;-88
2023/04/09 00:11:27;;;;;;;4.03;1.70;;;;;;;;;;4923322;29;20547;-88
2023/04/09 00:14:02;;;;;;;8.33;1.60;;;;;;;;;;4912991;29;20454;-88
2023/04/09 00:16:30;;;;;;;9.50;1.77;;;;;;;;;;4892797;29;20449;-88
2023/04/09 00:18:58;;;;;;;6.77;1.97;;;;;;;;;;4897539;29;20465;-87
2023/04/09 00:21:26;;;;;;;4.77;1.17;;;;;;;;;;4920447;29;20873;-88
2023/04/09 00:23:53;;;;;;;6.70;1.17;;;;;;;;;;4901732;29;20875;-88
2023/04/09 00:26:21;;;;;;;3.00;1.20;;;;;;;;;;4916463;29;21002;-88
2023/04/09 00:28:49;;;;;;;7.80;1.60;;;;;;;;;;4914472;29;21005;-88
2023/04/09 00:31:18;;;;;;;7.87;1.80;;;;;;;;;;4903767;29;20471;-88
2023/04/09 00:33:47;;;;;;;9.23;1.80;;;;;;;;;;4916340;29;20464;-88
2023/04/09 00:36:16;;;;;;;8.50;1.60;;;;;;;;;;4900864;29;20549;-87
2023/04/09 00:38:46;;;;;;;6.63;1.80;;;;;;;;;;4900381;29;20460;-88
2023/04/09 00:41:16;;;;;;;6.30;1.73;;;;;;;;;;4916808;29;20441;-88
2023/04/09 00:43:46;;;;;;;4.83;1.70;;;;;;;;;;4913280;29;20500;-88
2023/04/09 00:46:15;;;;;;;12.20;2.03;;;;;;;;;;4900780;29;20488;-88
2023/04/09 00:48:43;;;;;;;8.17;1.80;;;;;;;;;;4915538;29;20984;-88
2023/04/09 00:51:10;;;;;;;4.40;1.80;;;;;;;;;;4916453;29;20483;-90
2023/04/09 00:53:38;;;;;;;3.87;1.50;;;;;;;;;;4900612;29;20927;-89
2023/04/09 00:56:07;;;;;;;9.03;2.07;;;;;;;;;;4906270;29;20449;-88
2023/04/09 00:58:35;;;;;;;6.40;2.10;;;;;;;;;;4920281;29;20453;-89
2023/04/09 01:01:05;;;;;;;10.60;2.57;;;;;;;;;;4904901;29;20433;-89
2023/04/09 01:03:34;;;;;;;6.50;1.57;;;;;;;;;;4904799;29;20493;-90
2023/04/09 01:06:20;;;;;;;6.97;1.50;;;;;;;;;;4908256;29;20554;-89
2023/04/09 01:09:06;;;;;;;6.90;1.40;;;;;;;;;;4914462;29;20461;-89
2023/04/09 01:11:57;;;;;;;5.73;1.57;;;;;;;;;;4924347;29;20463;-90
2023/04/09 01:17:30;;;;;;;8.50;1.70;;;;;;;;;;4923845;29;20459;-89
2023/04/09 01:20:03;;;;;;;11.53;1.40;;;;;;;;;;4919076;29;20447;-89
2023/04/09 01:22:45;;;;;;;7.80;2.10;;;;;;;;;;4938389;29;20459;-88
2023/04/09 01:25:18;;;;;;;5.03;1.33;;;;;;;;;;4939499;29;20446;-89
2023/04/09 01:27:54;;;;;;;7.27;1.90;;;;;;;;;;4918805;29;20492;-89
2023/04/09 01:30:21;;;;;;;9.50;1.60;;;;;;;;;;4906055;29;20455;-89
2023/04/09 01:32:50;;;;;;;14.60;3.30;;;;;;;;;;4922914;29;20478;-89
2023/04/09 01:35:19;;;;;;;14.30;2.00;;;;;;;;;;4922723;29;20962;-90
2023/04/09 01:37:53;;;;;;;8.90;1.77;;;;;;;;;;4906028;29;20465;-89
2023/04/09 01:40:32;;;;;;;8.57;2.10;;;;;;;;;;4916198;29;20458;-89
2023/04/09 01:43:10;;;;;;;9.43;1.73;;;;;;;;;;4922746;29;20447;-89
2023/04/09 01:45:37;;;;;;;5.90;1.60;;;;;;;;;;4915062;29;20540;-89
2023/04/09 01:48:04;;;;;;;4.00;1.30;;;;;;;;;;4900330;29;20493;-89
2023/04/09 01:50:33;;;;;;;4.20;2.13;;;;;;;;;;4902729;29;20457;-89
2023/04/09 01:53:05;;;;;;;8.67;1.63;;;;;;;;;;4920831;29;20459;-89
2023/04/09 01:55:33;;;;;;;5.67;1.20;;;;;;;;;;4920899;29;20866;-89
2023/04/09 01:58:02;;;;;;;12.13;1.80;;;;;;;;;;4903620;29;20990;-89
2023/04/09 02:00:32;;;;;;;7.30;1.40;;;;;;;;;;4900312;29;20963;-89
2023/04/09 02:03:07;;;;;;;4.80;1.63;;;;;;;;;;4899852;29;20513;-89
2023/04/09 02:05:45;;;;;;;6.30;3.13;;;;;;;;;;4901206;29;20450;-89
2023/04/09 02:08:20;;;;;;;8.70;1.57;;;;;;;;;;4904705;29;20488;-88
2023/04/09 02:10:52;;;;;;;7.40;1.70;;;;;;;;;;4918959;29;20475;-90
2023/04/09 02:13:26;;;;;;;4.70;1.80;;;;;;;;;;4884708;29;20446;-89
2023/04/09 02:15:54;;;;;;;4.30;1.53;;;;;;;;;;4898041;29;20935;-89
2023/04/09 02:18:26;;;;;;;9.23;1.80;;;;;;;;;;4920922;29;20460;-89
2023/04/09 02:20:58;;;;;;;4.90;1.50;;;;;;;;;;4903163;29;20457;-90
2023/04/09 02:23:28;;;;;;;5.57;1.53;;;;;;;;;;4918436;29;20978;-89
2023/04/09 02:25:56;;;;;;;4.93;1.37;;;;;;;;;;4905657;29;20468;-89
2023/04/09 02:28:23;;;;;;;4.73;1.67;;;;;;;;;;4921739;29;20455;-89
2023/04/09 02:30:58;;;;;;;3.13;1.33;;;;;;;;;;4921464;29;20456;-89
2023/04/09 02:33:27;;;;;;;5.70;1.60;;;;;;;;;;4921792;29;20450;-89
2023/04/09 02:35:55;;;;;;;3.73;1.53;;;;;;;;;;4921275;29;20844;-89
2023/04/09 02:38:23;;;;;;;13.63;1.70;;;;;;;;;;4921939;29;20852;-90
2023/04/09 02:40:58;;;;;;;6.33;1.50;;;;;;;;;;4920417;29;20448;-89
2023/04/09 02:43:26;;;;;;;4.93;1.37;;;;;;;;;;4921751;29;20809;-90
2023/04/09 02:45:53;;;;;;;7.80;1.53;;;;;;;;;;4900043;29;20465;-90
2023/04/09 02:48:25;;;;;;;3.70;1.50;;;;;;;;;;4899150;29;20523;-89
2023/04/09 02:50:54;;;;;;;9.90;1.70;;;;;;;;;;4902458;29;20465;-90
2023/04/09 02:53:23;;;;;;;12.23;1.40;;;;;;;;;;4921380;29;20444;-89
2023/04/09 02:55:56;;;;;;;6.83;1.80;;;;;;;;;;4919782;29;20456;-90
2023/04/09 02:58:24;;;;;;;3.90;1.50;;;;;;;;;;4903512;29;20518;-89
2023/04/09 03:01:00;;;;;;;5.93;2.00;;;;;;;;;;4926030;29;21018;-90
2023/04/09 03:03:41;;;;;;;9.83;2.13;;;;;;;;;;4917859;29;20453;-89
2023/04/09 03:06:11;;;;;;;7.20;1.93;;;;;;;;;;4929494;29;21023;-89
2023/04/09 03:08:38;;;;;;;17.77;2.57;;;;;;;;;;4926877;29;20473;-90
2023/04/09 03:11:09;;;;;;;10.07;2.00;;;;;;;;;;4917610;29;20473;-89
2023/04/09 03:13:52;;;;;;;8.50;1.63;;;;;;;;;;4920089;29;20463;-89
2023/04/09 03:16:20;;;;;;;5.03;1.70;;;;;;;;;;4920866;29;20489;-90
2023/04/09 03:18:49;;;;;;;12.67;2.03;;;;;;;;;;4935975;29;20452;-89
2023/04/09 03:21:22;;;;;;;6.60;1.47;;;;;;;;;;4931342;29;20453;-88
2023/04/09 03:23:51;;;;;;;6.40;1.57;;;;;;;;;;4917789;29;20453;-89
2023/04/09 03:26:19;;;;;;;14.13;2.30;;;;;;;;;;4908085;29;20444;-89
2023/04/09 03:28:53;;;;;;;5.17;1.53;;;;;;;;;;4920837;29;20449;-89
2023/04/09 03:31:30;;;;;;;4.37;1.60;;;;;;;;;;4920303;29;20934;-89
2023/04/09 03:33:57;;;;;;;4.60;1.60;;;;;;;;;;4920783;29;20444;-89
2023/04/09 03:36:27;;;;;;;5.10;1.97;;;;;;;;;;4920753;29;20958;-89
2023/04/09 03:38:54;;;;;;;9.20;1.70;;;;;;;;;;4920535;29;20935;-87
2023/04/09 03:41:21;;;;;;;4.83;1.73;;;;;;;;;;4911367;29;20458;-89
2023/04/09 03:43:56;;;;;;;5.77;1.67;;;;;;;;;;4903539;29;20970;-89
2023/04/09 03:46:24;;;;;;;3.47;1.43;;;;;;;;;;4898231;29;20460;-89
2023/04/09 03:48:51;;;;;;;11.63;2.17;;;;;;;;;;4915276;29;20451;-89
2023/04/09 03:51:19;;;;;;;8.77;1.97;;;;;;;;;;4935396;29;20464;-89
2023/04/09 03:53:46;;;;;;;8.70;1.90;;;;;;;;;;4922172;29;20842;-89
2023/04/09 03:56:13;;;;;;;5.00;2.03;;;;;;;;;;4904884;29;20452;-89
2023/04/09 03:58:40;;;;;;;5.73;1.40;;;;;;;;;;4917136;29;20442;-89
2023/04/09 04:01:14;;;;;;;18.60;1.97;;;;;;;;;;4905929;29;20503;-90
2023/04/09 04:03:43;;;;;;;6.77;1.87;;;;;;;;;;4904233;29;20941;-89
2023/04/09 04:06:13;;;;;;;10.37;2.27;;;;;;;;;;4903479;29;20464;-89
2023/04/09 04:08:51;;;;;;;12.27;1.73;;;;;;;;;;4917119;29;20488;-89
2023/04/09 04:11:34;;;;;;;9.70;2.10;;;;;;;;;;4922728;29;20546;-89
2023/04/09 04:14:03;;;;;;;6.07;2.23;;;;;;;;;;4926646;29;20495;-88
2023/04/09 04:16:32;;;;;;;10.50;2.07;;;;;;;;;;4908863;29;20471;-89
2023/04/09 04:18:59;;;;;;;9.90;2.10;;;;;;;;;;4919683;29;20454;-89
2023/04/09 04:21:27;;;;;;;4.40;1.67;;;;;;;;;;4933733;29;20459;-89
2023/04/09 04:24:00;;;;;;;4.23;1.53;;;;;;;;;;4902675;29;20454;-89
2023/04/09 04:26:28;;;;;;;9.07;2.40;;;;;;;;;;4906209;29;20457;-89
2023/04/09 04:28:55;;;;;;;6.07;1.90;;;;;;;;;;4919047;29;20448;-88
2023/04/09 04:31:30;;;;;;;10.07;1.90;;;;;;;;;;4922023;29;20956;-89
2023/04/09 04:33:59;;;;;;;10.60;3.27;;;;;;;;;;4923773;29;20461;-90
2023/04/09 04:36:26;;;;;;;5.47;1.90;;;;;;;;;;4922964;29;20463;-89
2023/04/09 04:38:59;;;;;;;3.47;1.30;;;;;;;;;;4923362;29;20478;-89
2023/04/09 04:41:26;;;;;;;9.33;1.80;;;;;;;;;;4923578;29;20452;-89
2023/04/09 04:43:56;;;;;;;2.90;1.37;;;;;;;;;;4923295;29;20455;-90
2023/04/09 04:46:25;;;;;;;4.43;1.73;;;;;;;;;;4914084;29;20455;-89
2023/04/09 04:48:54;;;;;;;13.40;2.00;;;;;;;;;;4903870;29;20484;-89
2023/04/09 04:51:30;;;;;;;6.90;1.63;;;;;;;;;;4903737;29;20457;-88
2023/04/09 04:53:59;;;;;;;8.67;2.43;;;;;;;;;;4901149;29;20478;-89
2023/04/09 04:56:29;;;;;;;8.63;1.80;;;;;;;;;;4892302;29;20803;-89
2023/04/09 04:59:04;;;;;;;6.93;1.60;;;;;;;;;;4904567;29;20456;-89
2023/04/09 05:01:43;;;;;;;8.70;2.30;;;;;;;;;;4904221;29;20490;-89
2023/04/09 05:04:10;;;;;;;6.77;1.80;;;;;;;;;;4901550;29;20457;-89
2023/04/09 05:06:46;;;;;;;10.83;2.00;;;;;;;;;;4882176;29;20858;-89
2023/04/09 05:09:14;;;;;;;3.93;1.83;;;;;;;;;;4883199;29;20470;-89
2023/04/09 05:11:42;;;;;;;5.93;1.80;;;;;;;;;;4867861;29;20510;-89
2023/04/09 05:14:09;;;;;;;10.67;2.00;;;;;;;;;;4881319;29;20526;-89
2023/04/09 05:16:48;;;;;;;6.00;1.97;;;;;;;;;;4882232;29;20480;-89
2023/04/09 05:19:15;;;;;;;3.70;1.90;;;;;;;;;;4882006;29;20447;-89
2023/04/09 05:21:43;;;;;;;8.07;1.43;;;;;;;;;;4899479;29;20456;-89
2023/04/09 05:24:13;;;;;;;12.43;1.90;;;;;;;;;;4883658;29;20936;-87
2023/04/09 05:26:44;;;;;;;5.33;1.77;;;;;;;;;;4885138;29;20449;-88
2023/04/09 05:29:21;;;;;;;13.27;2.50;;;;;;;;;;4899996;29;20450;-89
2023/04/09 05:31:51;;;;;;;4.13;1.90;;;;;;;;;;4908410;29;20459;-89
2023/04/09 05:34:21;;;;;;;14.43;2.13;;;;;;;;;;4918619;29;20457;-89
2023/04/09 05:36:51;;;;;;;10.90;2.10;;;;;;;;;;4908562;29;20453;-88
2023/04/09 05:39:20;;;;;;;16.20;2.17;;;;;;;;;;4813569;29;20444;-88
2023/04/09 05:41:56;;;;;;;3.63;1.70;;;;;;;;;;4827765;29;20452;-89
2023/04/09 05:44:24;;;;;;;9.87;2.30;;;;;;;;;;4811008;29;20465;-89
2023/04/09 05:46:51;;;;;;;12.60;2.73;;;;;;;;;;4812506;29;20472;-89
2023/04/09 05:49:18;;;;;;;11.47;2.80;;;;;;;;;;4818133;29;20456;-88
2023/04/09 05:51:46;;;;;;;14.37;2.60;;;;;;;;;;4827508;29;20468;-88
2023/04/09 05:54:24;;;;;;;15.00;2.60;;;;;;;;;;4841651;29;20501;-89
2023/04/09 05:56:52;;;;;;;15.77;2.20;;;;;;;;;;4824802;29;20528;-89
2023/04/09 05:59:20;;;;;;;11.17;2.27;;;;;;;;;;4814563;29;20814;-89
2023/04/09 06:01:49;;;;;;;16.70;2.80;;;;;;;;;;4823520;29;20457;-89
2023/04/09 06:04:17;;;;;;;12.37;2.43;;;;;;;;;;4852790;29;20515;-89
2023/04/09 06:06:45;;;;;;;17.70;1.93;;;;;;;;;;4890397;29;20521;-89
2023/04/09 06:09:13;;;;;;;6.70;2.23;;;;;;;;;;4869158;29;20497;-89
2023/04/09 06:11:40;;;;;;;4.33;1.70;;;;;;;;;;4887434;29;20460;-89
2023/04/09 06:14:16;;;;;;;14.70;1.60;;;;;;;;;;4878655;29;20484;-88
2023/04/09 06:16:44;;;;;;;9.67;2.10;;;;;;;;;;4886275;29;20500;-89
2023/04/09 06:19:14;;;;;;;6.90;1.97;;;;;;;;;;4885414;29;20468;-89
2023/04/09 06:21:44;;;;;;;11.67;2.50;;;;;;;;;;4884170;29;20828;-89
2023/04/09 06:24:12;;;;;;;10.63;1.97;;;;;;;;;;4883364;29;20532;-88
2023/04/09 06:26:48;;;;;;;11.83;1.93;;;;;;;;;;4889177;29;20450;-89
2023/04/09 06:29:16;;;;;;;6.53;2.00;;;;;;;;;;4883800;29;20493;-89
2023/04/09 06:31:43;;;;;;;12.70;2.40;;;;;;;;;;4865448;29;20451;-88
2023/04/09 06:34:10;;;;;;;9.83;2.83;;;;;;;;;;4871277;29;20463;-88
2023/04/09 06:36:44;;;;;;;9.80;2.30;;;;;;;;;;4875331;29;20447;-89
2023/04/09 06:39:14;;;;;;;10.13;2.37;;;;;;;;;;4886942;29;20450;-89
2023/04/09 06:41:45;;;;;;;14.23;2.23;;;;;;;;;;4900790;29;20450;-89
2023/04/09 06:44:18;;;;;;;8.63;2.00;;;;;;;;;;4900051;29;20461;-89
2023/04/09 06:46:48;;;;;;;9.90;2.40;;;;;;;;;;4868481;29;20462;-89
2023/04/09 06:49:16;;;;;;;6.87;2.00;;;;;;;;;;4902469;29;20975;-90
2023/04/09 06:51:47;;;;;;;8.47;2.00;;;;;;;;;;4902743;29;20874;-90
2023/04/09 06:54:18;;;;;;;10.63;2.30;;;;;;;;;;4918062;29;20505;-90
2023/04/09 06:56:46;;;;;;;17.13;2.20;;;;;;;;;;4933325;29;20457;-90
2023/04/09 06:59:15;;;;;;;13.07;2.03;;;;;;;;;;4902000;29;20440;-90
2023/04/09 07:01:42;;;;;;;8.37;2.23;;;;;;;;;;4901885;29;20461;-90
2023/04/09 07:04:18;;;;;;;6.63;1.70;;;;;;;;;;4901335;29;20456;-89
2023/04/09 07:06:58;;;;;;;6.77;1.80;;;;;;;;;;4901633;29;20457;-90
2023/04/09 07:09:26;;;;;;;7.63;2.30;;;;;;;;;;4932242;29;20500;-88
2023/04/09 07:11:57;;;;;;;8.60;1.90;;;;;;;;;;4899159;29;20524;-89
2023/04/09 07:14:27;;;;;;;10.33;2.73;;;;;;;;;;4931970;29;20451;-89
2023/04/09 07:17:03;;;;;;;11.73;2.43;;;;;;;;;;4917515;29;20939;-89
2023/04/09 07:19:33;;;;;;;16.03;2.83;;;;;;;;;;4932329;29;20460;-89
2023/04/09 07:22:04;;;;;;;13.47;3.50;;;;;;;;;;4917774;29;20880;-89
2023/04/09 07:24:33;;;;;;;15.33;2.90;;;;;;;;;;4931079;29;20457;-89
2023/04/09 07:27:05;;;;;;;10.83;3.07;;;;;;;;;;4901218;29;20451;-90
2023/04/09 07:29:32;;;;;;;16.90;3.73;;;;;;;;;;4916449;29;20846;-89
2023/04/09 07:32:01;;;;;;;18.67;3.03;;;;;;;;;;4916683;29;20452;-89
2023/04/09 07:34:30;;;;;;;23.13;3.47;;;;;;;;;;4901031;29;20904;-90
2023/04/09 07:36:58;;;;;;;13.37;2.73;;;;;;;;;;4916460;29;20440;-89
2023/04/09 07:39:25;;;;;;;9.57;3.30;;;;;;;;;;4901193;29;20437;-90
2023/04/09 07:41:59;;;;;;;7.40;2.90;;;;;;;;;;4897224;29;20433;-88
2023/04/09 07:44:26;;;;;;;11.73;2.77;;;;;;;;;;4931649;29;20529;-90
2023/04/09 07:46:55;;;;;;;11.97;2.60;;;;;;;;;;4915901;29;20441;-89
2023/04/09 07:49:41;;;;;;;19.30;3.10;;;;;;;;;;4931432;29;20998;-89
2023/04/09 07:52:08;;;;;;;9.67;2.33;;;;;;;;;;4901905;29;20449;-89
2023/04/09 07:54:43;;;;;;;12.07;2.67;;;;;;;;;;4912381;29;20456;-89
2023/04/09 07:57:10;;;;;;;14.27;3.00;;;;;;;;;;4901295;29;20456;-89
2023/04/09 07:59:38;;;;;;;16.97;2.77;;;;;;;;;;4893294;29;20441;-90
2023/04/09 08:02:05;;;;;;;18.90;2.80;;;;;;;;;;4884923;29;20552;-89
2023/04/09 08:04:32;;;;;;;10.90;2.60;;;;;;;;;;4916699;29;20812;-89
2023/04/09 08:07:00;;;;;;;14.20;2.77;;;;;;;;;;4917750;29;20440;-89
2023/04/09 08:09:29;;;;;;;22.03;2.63;;;;;;;;;;4882144;29;20858;-89
2023/04/09 08:11:56;;;;;;;17.40;2.90;;;;;;;;;;4882257;29;20560;-89
2023/04/09 08:14:26;;;;;;;15.37;3.93;;;;;;;;;;4874788;29;20461;-89
2023/04/09 08:16:57;;;;;;;15.13;2.30;;;;;;;;;;4897419;29;20460;-90
2023/04/09 08:19:24;;;;;;;11.80;2.83;;;;;;;;;;4913365;29;20462;-90
2023/04/09 08:21:51;;;;;;;17.20;2.67;;;;;;;;;;4882199;29;20454;-90
2023/04/09 08:24:21;;;;;;;14.40;3.60;;;;;;;;;;4885154;29;20459;-90
2023/04/09 08:26:48;;;;;;;13.07;3.57;;;;;;;;;;4892815;29;20965;-90
2023/04/09 08:29:16;;;;;;;12.93;2.63;;;;;;;;;;4882414;29;21022;-90
2023/04/09 08:31:47;;;;;;;16.53;2.77;;;;;;;;;;4877057;29;20446;-92
2023/04/09 08:44:39;;;;;;;11.40;2.47;;;;;;;17.92;nan;101672.31;4922724;29;20483;-94
2023/04/09 08:48:07;;;;;;;10.57;1.60;;;;;;;18.11;nan;101681.59;4889504;29;20455;-96
2023/04/09 08:54:40;;;;;;;15.47;2.20;;;;;;;18.43;nan;101705.50;4901182;29;20486;-95
2023/04/09 09:01:33;;;;;;;11.33;2.50;;;;;;;18.71;nan;101688.50;4900304;29;20397;-96
2023/04/09 09:53:53;;;;;;;16.53;6.10;;;;;;;21.32;nan;101786.59;4845497;29;20553;-87
2023/04/09 10:00:24;;;;;;;20.33;4.43;;;;;;;21.65;nan;101801.88;4929053;29;20456;-92
2023/04/09 10:03:07;;;;;;;64.00;21.30;;;;;;;21.80;nan;101793.88;4913795;29;20452;-87
2023/04/09 10:05:35;;;;;;;14.07;4.60;;;;;;;21.94;nan;101788.88;4922179;29;20455;-87
2023/04/09 10:08:03;;;;;;;12.87;2.40;;;;;;;22.07;nan;101798.97;4913548;29;20532;-87
2023/04/09 10:10:32;;;;;;;15.03;4.00;;;;;;;22.22;nan;101796.53;4907846;29;20461;-90
2023/04/09 10:13:00;;;;;;;38.07;12.90;;;;;;;22.36;nan;101786.78;4922721;29;20620;-92
2023/04/09 10:15:59;;;;;;;18.73;5.07;;;;;;;22.57;nan;101791.69;4890223;29;20460;-95
2023/04/09 10:18:41;;;;;;;15.17;3.07;;;;;;;22.78;nan;101800.47;4904581;29;20468;-91
2023/04/09 10:21:42;;;;;;;17.30;2.50;;;;;;;22.98;nan;101806.44;4907037;29;20482;-92
2023/04/09 10:24:41;;;;;;;13.83;3.03;;;;;;;23.17;nan;101796.75;4902464;29;20453;-89
2023/04/09 10:27:56;;;;;;;12.70;3.57;;;;;;;23.33;nan;101792.28;4904499;29;20460;-96
2023/04/09 10:30:47;;;;;;;19.40;3.57;;;;;;;23.54;nan;101807.47;4918599;29;20538;-93
2023/04/09 10:33:36;;;;;;;18.00;2.70;;;;;;;23.70;nan;101801.84;4903588;29;20955;-95
2023/04/09 10:36:32;;;;;;;49.43;6.23;;;;;;;23.89;nan;101793.19;4903032;29;20470;-94
2023/04/09 10:39:12;;;;;;;22.30;3.43;;;;;;;23.99;nan;101783.03;4833606;29;20455;-91
2023/04/09 10:41:41;;;;;;;21.37;3.27;;;;;;;24.12;nan;101784.59;4815974;29;20565;-89
2023/04/09 10:44:26;;;;;;;15.20;3.27;;;;;;;24.31;nan;101799.97;4830244;29;20456;-93
2023/04/09 10:47:02;;;;;;;20.00;3.20;;;;;;;24.38;nan;101783.03;4817282;29;20495;-91
2023/04/09 10:49:38;;;;;;;15.77;3.37;;;;;;;24.54;nan;101792.44;4800776;29;20503;-89
2023/04/09 10:52:14;;;;;;;17.90;2.60;;;;;;;24.61;nan;101785.53;4828162;29;20524;-89
2023/04/09 10:54:44;;;;;;;15.67;2.60;;;;;;;24.76;nan;101785.72;4835482;29;20487;-89
2023/04/09 10:57:13;;;;;;;16.60;2.90;;;;;;;24.90;nan;101802.06;4825634;29;20460;-89
2023/04/09 10:59:45;;;;;;;24.70;3.60;;;;;;;24.97;nan;101799.94;4812139;29;20469;-89
2023/04/09 11:02:37;;;;;;;14.37;2.43;;;;;;;25.09;nan;101806.22;4817983;29;20460;-89
2023/04/09 11:05:17;;;;;;;14.43;2.80;;;;;;;25.23;nan;101796.25;4928835;29;20461;-89
2023/04/09 11:07:52;;;;;;;9.50;2.60;;;;;;;25.35;nan;101793.31;4926299;29;20459;-89
2023/04/09 11:10:21;;;;;;;11.83;2.03;;;;;;;25.44;nan;101797.28;4917132;29;20511;-89
2023/04/09 11:12:48;;;;;;;15.20;2.10;;;;;;;25.51;nan;101791.47;4916249;29;20471;-90
2023/04/09 11:15:19;;;;;;;15.43;3.07;;;;;;;25.59;nan;101793.78;4902554;29;20967;-92
2023/04/09 11:17:47;;;;;;;20.60;3.17;;;;;;;25.71;nan;101797.25;4901839;29;20467;-89
2023/04/09 11:20:21;;;;;;;13.60;2.03;;;;;;;25.75;nan;101795.63;4893300;29;20956;-90
2023/04/09 11:22:50;;;;;;;13.97;2.63;;;;;;;25.68;nan;101769.78;4891694;29;20454;-90
2023/04/09 11:25:26;;;;;;;12.37;2.27;;;;;;;25.89;nan;101777.22;4883371;29;20470;-90
2023/04/09 11:27:55;;;;;;;13.00;2.33;;;;;;;25.97;nan;101784.28;4903789;29;20463;-91
2023/04/09 11:30:45;;;;;;;21.50;3.17;;;;;;;26.11;nan;101789.09;4901346;29;20548;-93
2023/04/09 11:33:21;;;;;;;9.80;2.70;;;;;;;26.19;nan;101798.09;4867029;29;20461;-91
2023/04/09 11:35:51;;;;;;;18.13;2.40;;;;;;;26.26;nan;101793.09;4882280;29;20438;-90
2023/04/09 11:38:24;;;;;;;7.33;2.20;;;;;;;26.38;nan;101786.16;4863553;29;20831;-91
2023/04/09 11:41:14;;;;;;;15.90;2.03;;;;;;;26.47;nan;101778.91;4862913;29;20507;-90
2023/04/09 11:43:42;;;;;;;14.83;2.20;;;;;;;26.58;nan;101774.19;4872356;29;20457;-91
2023/04/09 11:46:11;;;;;;;13.13;2.13;;;;;;;26.68;nan;101773.38;4846722;29;20447;-90
2023/04/09 11:48:40;;;;;;;11.20;2.37;;;;;;;26.79;nan;101767.50;4865534;29;20482;-90
2023/04/09 11:51:08;;;;;;;11.37;2.40;;;;;;;26.92;nan;101770.91;4886564;29;21048;-90
2023/04/09 11:53:36;;;;;;;7.83;1.93;;;;;;;27.00;nan;101765.59;4879025;29;20510;-90
2023/04/09 11:56:05;;;;;;;7.00;2.30;;;;;;;27.15;nan;101784.41;4855458;29;20951;-90
2023/04/09 11:58:34;;;;;;;11.33;2.80;;;;;;;27.21;nan;101772.09;4894602;29;20970;-90
2023/04/09 12:01:03;;;;;;;9.57;2.07;;;;;;;27.32;nan;101773.78;4863893;29;20453;-90
2023/04/09 12:03:32;;;;;;;4.50;1.73;;;;;;;27.43;nan;101769.84;4832298;29;20465;-91
2023/04/09 12:06:02;;;;;;;12.50;2.57;;;;;;;27.50;nan;101770.41;4833100;29;20450;-90
2023/04/09 12:08:30;;;;;;;15.70;2.50;;;;;;;27.50;nan;101764.78;4816474;29;20451;-90
2023/04/09 12:11:11;;;;;;;7.47;1.80;;;;;;;27.55;nan;101765.88;4876487;29;20499;-90
2023/04/09 12:13:45;;;;;;;16.73;2.97;;;;;;;27.62;nan;101766.47;4860313;29;20972;-90
2023/04/09 12:16:13;;;;;;;12.23;2.93;;;;;;;27.67;nan;101763.69;4866022;29;20449;-90
2023/04/09 12:18:42;;;;;;;24.30;2.77;;;;;;;27.68;nan;101751.31;4882377;29;20475;-90
2023/04/09 12:21:12;;;;;;;10.50;2.13;;;;;;;27.65;nan;101743.44;4885512;29;20958;-90
2023/04/09 12:23:40;;;;;;;10.30;2.10;;;;;;;27.67;nan;101752.44;4884972;29;20449;-91
2023/04/09 12:26:18;;;;;;;11.00;2.30;;;;;;;27.69;nan;101751.03;4882964;29;20509;-89
2023/04/09 12:37:29;;;;;;;9.83;1.70;;;;;;;27.91;nan;101752.63;4898599;29;20425;-91
2023/04/09 12:40:00;;;;;;;12.40;2.30;;;;;;;28.03;nan;101759.66;4918459;29;20468;-91
2023/04/09 12:42:31;;;;;;;13.90;2.50;;;;;;;28.13;nan;101756.78;4912801;29;20485;-91
2023/04/09 12:45:09;;;;;;;18.03;3.30;;;;;;;28.22;nan;101756.22;4900872;29;20459;-91
2023/04/09 12:47:43;;;;;;;6.30;2.23;;;;;;;28.28;nan;101752.28;4901317;29;20452;-91
2023/04/09 12:50:12;;;;;;;11.50;2.83;;;;;;;28.34;nan;101751.09;4901203;29;20519;-91
2023/04/09 12:52:44;;;;;;;13.80;2.43;;;;;;;28.46;nan;101744.03;4888098;29;20453;-91
2023/04/09 12:55:13;;;;;;;12.23;2.17;;;;;;;28.44;nan;101746.28;4904534;29;20487;-91
2023/04/09 12:57:42;;;;;;;11.07;2.87;;;;;;;28.51;nan;101734.69;4904382;29;20931;-91
2023/04/09 13:00:11;;;;;;;15.97;2.70;;;;;;;28.62;nan;101746.75;4904261;29;20508;-91
2023/04/09 13:02:41;;;;;;;11.03;2.57;;;;;;;28.64;nan;101744.50;4889198;29;20484;-91
2023/04/09 13:05:10;;;;;;;16.43;2.80;;;;;;;28.66;nan;101736.59;4888742;29;20456;-91
2023/04/09 13:07:38;;;;;;;8.73;2.20;;;;;;;28.69;nan;101734.03;4889065;29;20488;-89
2023/04/09 13:10:10;;;;;;;14.30;3.10;;;;;;;28.75;nan;101741.31;4889861;29;20515;-89
2023/04/09 13:12:38;;;;;;;18.93;2.03;;;;;;;28.88;nan;101740.69;4888918;29;20464;-89
2023/04/09 13:15:14;;;;;;;9.20;1.97;;;;;;;28.92;nan;101737.28;4904219;29;20519;-89
2023/04/09 13:17:44;;;;;;;8.80;2.63;;;;;;;28.93;nan;101724.88;4888942;29;20452;-91
2023/04/09 13:20:19;;;;;;;13.73;2.50;;;;;;;29.01;nan;101729.91;4904316;29;20461;-91
2023/04/09 13:22:47;;;;;;;13.03;2.60;;;;;;;29.02;nan;101717.53;4904411;29;20444;-91
2023/04/09 13:25:16;;;;;;;14.53;2.77;;;;;;;29.04;nan;101720.88;4888938;29;20452;-91
2023/04/09 13:27:44;;;;;;;14.80;3.00;;;;;;;29.02;nan;101723.16;4903854;29;20457;-91
2023/04/09 13:30:12;;;;;;;11.40;2.73;;;;;;;29.09;nan;101724.47;4887725;29;20488;-91
2023/04/09 13:32:42;;;;;;;12.70;3.07;;;;;;;29.16;nan;101724.16;4888341;29;20457;-91
2023/04/09 13:35:17;;;;;;;7.73;2.50;;;;;;;29.23;nan;101724.66;4888734;29;20449;-91
2023/04/09 13:37:47;;;;;;;15.10;2.57;;;;;;;29.23;nan;101713.41;4904238;29;20503;-91
2023/04/09 13:40:17;;;;;;;9.90;2.03;;;;;;;29.33;nan;101721.72;4903789;29;20958;-91
2023/04/09 13:42:45;;;;;;;7.70;2.30;;;;;;;29.36;nan;101709.03;4903788;29;20449;-91
2023/04/09 13:45:15;;;;;;;12.00;2.50;;;;;;;29.39;nan;101717.78;4888391;29;20452;-91
2023/04/09 13:47:44;;;;;;;11.87;2.70;;;;;;;29.50;nan;101722.16;4888815;29;20459;-91
2023/04/09 13:50:12;;;;;;;13.97;2.30;;;;;;;29.61;nan;101725.72;4903743;29;20507;-91
2023/04/09 13:52:42;;;;;;;12.53;3.40;;;;;;;29.66;nan;101722.84;4904016;29;20452;-91
2023/04/09 13:55:10;;;;;;;14.73;3.20;;;;;;;29.69;nan;101727.03;4887834;29;20481;-91
2023/04/09 13:57:38;;;;;;;19.03;3.60;;;;;;;29.70;nan;101729.56;4903411;29;20448;-90
2023/04/09 14:00:12;;;;;;;16.40;3.40;;;;;;;29.71;nan;101728.41;4903134;29;20465;-91
2023/04/09 14:02:40;;;;;;;10.33;3.07;;;;;;;29.61;nan;101724.88;4903161;29;20462;-92
2023/04/09 14:05:12;;;;;;;13.30;4.90;;;;;;;29.68;nan;101728.19;4903783;29;20449;-91
2023/04/09 14:07:40;;;;;;;20.97;4.30;;;;;;;29.73;nan;101723.34;4903387;29;20461;-92
2023/04/09 14:10:09;;;;;;;14.33;3.80;;;;;;;29.69;nan;101715.75;4887820;29;20492;-91
2023/04/09 14:12:42;;;;;;;25.90;5.57;;;;;;;29.84;nan;101724.03;4903474;29;20449;-91
2023/04/09 14:15:10;;;;;;;12.50;3.50;;;;;;;29.78;nan;101714.81;4903159;29;20452;-91
2023/04/09 14:17:39;;;;;;;16.40;4.00;;;;;;;29.73;nan;101712.06;4888079;29;20989;-91
2023/04/09 14:20:18;;;;;;;14.73;3.13;;;;;;;29.76;nan;101702.16;4888660;29;20468;-91
2023/04/09 14:22:50;;;;;;;14.63;3.53;;;;;;;29.78;nan;101706.38;4903897;29;20444;-91
2023/04/09 14:25:20;;;;;;;18.43;4.53;;;;;;;29.86;nan;101711.34;4888802;29;20440;-91
2023/04/09 14:27:48;;;;;;;16.50;5.83;;;;;;;29.90;nan;101723.69;4902978;29;20460;-91
2023/04/09 14:30:16;;;;;;;16.23;6.00;;;;;;;29.87;nan;101709.34;4903060;29;20476;-92
2023/04/09 14:32:44;;;;;;;10.73;4.20;;;;;;;29.80;nan;101718.19;4887740;29;20460;-91
2023/04/09 14:35:14;;;;;;;12.30;3.47;;;;;;;29.66;nan;101722.00;4887662;29;20449;-91
2023/04/09 14:37:41;;;;;;;6.80;2.60;;;;;;;29.43;nan;101729.28;4902216;29;20565;-91
2023/04/09 14:40:09;;;;;;;11.60;3.20;;;;;;;29.18;nan;101727.50;4903941;29;20465;-91
2023/04/09 14:42:40;;;;;;;15.20;3.17;;;;;;;28.86;nan;101719.63;4869844;29;20461;-91
2023/04/09 14:45:08;;;;;;;13.97;3.23;;;;;;;28.54;nan;101728.50;4868716;29;20460;-90
2023/04/09 14:47:36;;;;;;;13.67;3.47;;;;;;;28.39;nan;101723.81;4868658;29;20462;-91
2023/04/09 14:50:05;;;;;;;33.27;12.27;;;;;;;28.24;nan;101735.13;4868516;29;20520;-91
2023/04/09 14:52:35;;;;;;;17.30;3.50;;;;;;;28.09;nan;101732.38;4883695;29;20453;-91
2023/04/09 14:55:03;;;;;;;34.77;4.60;;;;;;;27.81;nan;101736.66;4856722;29;20482;-90
2023/04/09 14:57:40;;;;;;;20.97;4.37;;;;;;;27.69;nan;101728.56;4879941;29;20494;-91
2023/04/09 15:00:11;;;;;;;18.30;3.10;;;;;;;27.62;nan;101722.38;4880514;29;20459;-91
2023/04/09 15:02:46;;;;;;;11.87;3.30;;;;;;;27.67;nan;101725.19;4880189;29;20455;-91
2023/04/09 15:05:15;;;;;;;13.40;3.40;;;;;;;27.62;nan;101725.19;4865085;29;20477;-91